ADDS TAF Board (Experimental) INFO

IDs: Format: Expanded Condensed

Updated at: 1906 UTC 01 Sep 2014

KMCO - Orlando Intl, FL, US

Issued at 1746 UTC 01 Sep 2014
Time1853Z01/20Z01/21Z01/22Z01/23Z02/00Z02/01Z02/02Z02/03Z02/04Z02/05Z02/06Z02/07Z02/08Z
TypeOBSPRVLPRVLPRVLPRVLPRVLPRVLPRVLPRVLPRVLPRVLPRVLPRVLPRVL
VIS10>6>6>6>6>6>6>6>6>6>6>6>6>6
CIG----------------------------
CoverSCTSCTSCTSCTSCTSCTSCTFEWFEWFEWFEWFEWFEWFEW
FltCat--VFRVFRVFRVFRVFRVFRVFRVFRVFRVFRVFRVFRVFR
WX--VCSHVCSHVCSHVCSH------------------
WDirVRB110110110110110110VRBVRBVRBVRBVRBVRBVRB
WSpd38888550000000
WGst----------------------------
R17/35
XWndVRB777755VRBVRBVRBVRBVRBVRBVRB
HWndVRB333322VRBVRBVRBVRBVRBVRBVRB
R18/36
XWndVRB777755VRBVRBVRBVRBVRBVRBVRB
HWndVRB333322VRBVRBVRBVRBVRBVRBVRB
Raw TAF
KMCO 011746Z 0118/0218 11008KT P6SM VCSH SCT040 SCT070
  FM020000 11005KT P6SM FEW040 SCT250
  FM020200 00000KT P6SM FEW040


Raw METAR
KMCO 011853Z VRB03KT 10SM SCT050 34/21 A3007 RMK AO2 SLP183 T03390211

TAF Board Legend

Hazard VFR MVFR IFR LIFR
Visibility (sm) >5 3≤X≤5 1≤X<3 <1
Ceiling (100 ft) >30 10≤X≤30 5≤X<10 <5
Wind Speed (kt) <10 10≤X<20 20≤X<30 ≥30
Wind Gust (kt) <15 15≤X<25 25≤X<35 ≥35
Weather No Wx Reported VCTS,-TS,-FZRA TS,FZRA +TS,+FZRA


Page loaded:  19:06 UTC  |   12:06 PM Pacific  |   01:06 PM Mountain  |   02:06 PM Central  |   03:06 PM Eastern

 

ADVISORIES

FORECASTS

FORECASTS

OBSERVATIONS

USER TOOLS

ABOUT US